Weather at Aviosuperficie Jonathan

Public forecast

Using degrees Celsius for public forecast. Weather courtesy of forecast.io.

Closest aviation weather report (METAR) to Aviosuperficie Jonathan

Closest report is Treviso-Sant'Angelo Airport, 9.6 nm (17.8 km) SSW. Retrieved 2021/06/21 08:20 UTC (27 minutes ago):

LIPH 210820Z 07004KT 350V120 CAVOK 28/22 Q1009

Closest aviation forecast (TAF) to Aviosuperficie Jonathan

Closest forecast is Treviso-Sant'Angelo Airport, 9.6 nm (17.8 km) SSW. Retrieved 2021/06/21 06:00 UTC (3 hours ago):

TAF LIPH 210500Z 2106/2206 VRB05KT 9999 FEW030 BECMG 2110/2112 16010KT BECMG 2116/2118 VRB05KT